»·PEaware :: WAT390 KRNO-KDEN

WAT390 :: KRNO-KDEN

FLIGHT INFORMATION

Flight Status: Arrived
Operator:
Walker Air Transport
More flights by this operator :: More flights under this callsign
Pilot: Ewen S. (18928)
Aircraft: BOEING 727-200
(B722)
More flights by this aircraft type
Origin: KRNO Reno/Tahoe Intl
United States
Destination: KDEN Denver Intl
United States
More flights between these airports :: More routes between these airports
Route: +WAGGE6 LLC T331 BAM V32 FBR V142 OCS RAMMS8
File this flight plan on PilotEdge
Remarks:
Altitude:
(Current/Filed)
39,000ft
Speed:
(Current/Filed)
430kts
Departed: 28-Oct-20 12:09 PM
Arrived: 28-Oct-20 03:18 PM
Distance/Time
Traveled:
697nm/3:09
Distance/Time
To Go:
Arrived

Flight Plot

Page will automatically refresh every two minutes.

Flight plan parsing failed; only flown route is shown


Map Options




Map Legend


Flown Route
Filed Route
Departure Airport
Arrival Airport
Navaid (VOR, NDB)
Fix

Horizontal Profiles

Position Reports

Time Latitude Longitude Heading Altitude Ground
Speed
28-Oct-20 11:29 39.509657 -119.774254 321 4422ft 0kts
28-Oct-20 11:30 39.509657 -119.774254 321 4422ft 0kts
28-Oct-20 11:31 39.509657 -119.774254 321 4422ft 0kts
28-Oct-20 11:32 39.509657 -119.774254 321 4422ft 0kts
28-Oct-20 11:33 39.509657 -119.774254 321 4422ft 0kts
28-Oct-20 11:34 39.509657 -119.774254 321 4422ft 0kts
28-Oct-20 11:35 39.509657 -119.774254 321 4422ft 0kts
28-Oct-20 11:36 39.509657 -119.774254 321 4422ft 0kts
28-Oct-20 11:37 39.509657 -119.774254 321 4422ft 0kts
28-Oct-20 11:38 39.509657 -119.774254 321 4422ft 0kts
28-Oct-20 11:39 39.509657 -119.774254 321 4422ft 0kts
28-Oct-20 11:40 39.509657 -119.774254 321 4422ft 0kts
28-Oct-20 11:41 39.509657 -119.774254 321 4422ft 0kts
28-Oct-20 11:42 39.509657 -119.774254 321 4422ft 0kts
28-Oct-20 11:43 39.509657 -119.774254 321 4422ft 0kts
28-Oct-20 11:44 39.509657 -119.774254 321 4422ft 0kts
28-Oct-20 11:45 39.509657 -119.774254 321 4422ft 0kts
28-Oct-20 11:46 39.509657 -119.774254 321 4422ft 0kts
28-Oct-20 11:47 39.509657 -119.774254 321 4422ft 0kts
28-Oct-20 11:48 39.509336 -119.773958 354 4422ft 2kts
28-Oct-20 11:49 39.509083 -119.774315 91 4422ft 0kts
28-Oct-20 11:50 39.509083 -119.774315 91 4422ft 0kts
28-Oct-20 11:51 39.509083 -119.774315 91 4422ft 0kts
28-Oct-20 11:52 39.509083 -119.774315 91 4422ft 0kts
28-Oct-20 11:53 39.509083 -119.774315 91 4422ft 0kts
28-Oct-20 11:54 39.509083 -119.774315 91 4422ft 0kts
28-Oct-20 11:55 39.509083 -119.774315 91 4422ft 0kts
28-Oct-20 11:56 39.509083 -119.774315 91 4422ft 0kts
28-Oct-20 11:57 39.509083 -119.774315 91 4422ft 0kts
28-Oct-20 11:58 39.509083 -119.774315 91 4422ft 0kts
28-Oct-20 11:59 39.509084 -119.774216 87 4422ft 1kts
28-Oct-20 12:00 39.509097 -119.773019 90 4422ft 3kts
28-Oct-20 12:01 39.511042 -119.771472 0 4422ft 11kts
28-Oct-20 12:02 39.512990 -119.771469 0 4422ft 0kts
28-Oct-20 12:03 39.512990 -119.771469 0 4422ft 0kts
28-Oct-20 12:04 39.512990 -119.771469 0 4422ft 0kts
28-Oct-20 12:05 39.512283 -119.771477 0 4422ft 9kts
28-Oct-20 12:06 39.510945 -119.771142 55 4422ft 8kts
28-Oct-20 12:07 39.511041 -119.770317 91 4422ft 15kts
28-Oct-20 12:08 39.496952 -119.769265 179 4423ft 148kts
28-Oct-20 12:09 39.447988 -119.768998 175 5828ft 178kts
28-Oct-20 12:10 39.396976 -119.769746 180 7296ft 188kts
28-Oct-20 12:11 39.337468 -119.769683 179 8381ft 252kts
28-Oct-20 12:12 39.263844 -119.770058 179 11412ft 270kts
28-Oct-20 12:13 39.191230 -119.743288 120 13637ft 297kts
28-Oct-20 12:14 39.220576 -119.643150 47 15909ft 308kts
28-Oct-20 12:15 39.262495 -119.538901 58 18282ft 326kts
28-Oct-20 12:16 39.329583 -119.460506 21 20067ft 338kts
28-Oct-20 12:17 39.417031 -119.424375 8 22408ft 333kts
28-Oct-20 12:18 39.489194 -119.346814 53 23563ft 366kts
28-Oct-20 12:19 39.550859 -119.230790 46 23544ft 418kts
28-Oct-20 12:21 39.634484 -119.112472 46 23492ft 463kts
28-Oct-20 12:22 39.723229 -118.996135 33 25878ft 429kts
28-Oct-20 12:23 39.822979 -118.917419 26 27494ft 412kts
28-Oct-20 12:24 39.921813 -118.840919 32 28347ft 409kts
28-Oct-20 12:25 39.993180 -118.726239 44 29291ft 399kts
28-Oct-20 12:26 40.078591 -118.638910 32 30344ft 379kts
28-Oct-20 12:27 40.145230 -118.528872 60 30472ft 392kts
28-Oct-20 12:28 40.177343 -118.392042 66 31138ft 383kts
28-Oct-20 12:29 40.215143 -118.261033 67 31910ft 371kts
28-Oct-20 12:30 40.249942 -118.131193 69 32053ft 383kts
28-Oct-20 12:31 40.284566 -117.998027 68 32804ft 387kts
28-Oct-20 12:32 40.320544 -117.863639 68 33451ft 392kts
28-Oct-20 12:33 40.357768 -117.727276 69 34154ft 396kts
28-Oct-20 12:34 40.393602 -117.588917 65 34765ft 400kts
28-Oct-20 12:34 40.434651 -117.479432 68 35150ft 404kts
28-Oct-20 12:36 40.469959 -117.313236 75 36072ft 402kts
28-Oct-20 12:36 40.494567 -117.193531 69 36381ft 406kts
28-Oct-20 12:38 40.535457 -117.051921 69 36458ft 402kts
28-Oct-20 12:38 40.556513 -116.970462 69 36319ft 383kts
28-Oct-20 12:57 39.509657 -119.774254 321 4422ft 0kts
28-Oct-20 12:58 39.509657 -119.774254 321 4422ft 0kts
28-Oct-20 12:59 39.509657 -119.774254 321 4422ft 0kts
28-Oct-20 13:00 39.509657 -119.774254 321 4422ft 0kts
28-Oct-20 13:01 39.509657 -119.774254 321 4422ft 0kts
28-Oct-20 13:02 39.509657 -119.774254 321 4422ft 0kts
28-Oct-20 13:03 39.509657 -119.774254 321 4422ft 0kts
28-Oct-20 13:04 39.509213 -119.774026 25 4422ft 2kts
28-Oct-20 13:05 39.509081 -119.774364 91 4422ft 0kts
28-Oct-20 13:06 39.509081 -119.774363 91 4422ft 0kts
28-Oct-20 13:07 39.509081 -119.774363 91 4422ft 0kts
28-Oct-20 13:08 39.509081 -119.774363 91 4422ft 0kts
28-Oct-20 13:09 39.509259 -119.771626 38 4422ft 12kts
28-Oct-20 13:10 39.511012 -119.770500 86 4422ft 0kts
28-Oct-20 13:11 39.496407 -119.769264 180 4423ft 150kts
28-Oct-20 13:12 39.449021 -119.769217 179 5917ft 166kts
28-Oct-20 13:13 39.395548 -119.769593 180 7630ft 211kts
28-Oct-20 13:14 39.334859 -119.769835 179 10038ft 233kts
28-Oct-20 13:15 39.265934 -119.764912 146 12001ft 261kts
28-Oct-20 13:16 39.261820 -119.681855 62 14168ft 258kts
28-Oct-20 13:17 39.294128 -119.596560 61 16274ft 267kts
28-Oct-20 13:18 39.326913 -119.508493 49 18155ft 272kts
28-Oct-20 13:19 39.386699 -119.446194 23 19685ft 286kts
28-Oct-20 13:20 39.457465 -119.396417 33 21647ft 293kts
28-Oct-20 13:21 39.513151 -119.322506 83 23129ft 318kts
28-Oct-20 13:22 39.529759 -119.209459 60 24585ft 317kts
28-Oct-20 13:23 39.591290 -119.130123 29 25868ft 315kts
28-Oct-20 13:24 39.668811 -119.074107 28 27107ft 321kts
28-Oct-20 13:25 39.749424 -119.019163 30 28184ft 329kts
28-Oct-20 13:26 39.822870 -118.943934 41 29111ft 339kts
28-Oct-20 13:27 39.890025 -118.855203 43 30037ft 345kts
28-Oct-20 13:28 39.961363 -118.768991 38 30863ft 350kts
28-Oct-20 13:29 40.035300 -118.683147 39 31607ft 356kts
28-Oct-20 13:30 40.109905 -118.595280 39 32347ft 360kts
28-Oct-20 13:31 40.154472 -118.479761 78 32931ft 371kts
28-Oct-20 13:32 40.188694 -118.352764 67 33575ft 370kts
28-Oct-20 13:33 40.223148 -118.224879 68 34013ft 373kts
28-Oct-20 13:34 40.258186 -118.095592 68 34398ft 375kts
28-Oct-20 13:35 40.293483 -117.965616 68 34757ft 378kts
28-Oct-20 13:36 40.329236 -117.833948 68 35070ft 380kts
28-Oct-20 13:37 40.364828 -117.703277 67 35479ft 378kts
28-Oct-20 13:38 40.396143 -117.569824 69 35739ft 382kts
28-Oct-20 13:39 40.431230 -117.437141 67 36071ft 382kts
28-Oct-20 13:40 40.468749 -117.305212 68 36311ft 384kts
28-Oct-20 13:41 40.504223 -117.170762 69 36678ft 388kts
28-Oct-20 13:42 40.539375 -117.035401 68 37060ft 389kts
28-Oct-20 13:43 40.574811 -116.899892 68 37341ft 388kts
28-Oct-20 13:44 40.596193 -116.759092 79 37361ft 392kts
28-Oct-20 13:45 40.621227 -116.619580 71 37360ft 389kts
28-Oct-20 13:46 40.648020 -116.480340 74 37360ft 390kts
28-Oct-20 13:47 40.672610 -116.340147 73 37358ft 390kts
28-Oct-20 13:48 40.688832 -116.197432 83 37357ft 392kts
28-Oct-20 13:49 40.703081 -116.054776 75 37350ft 387kts
28-Oct-20 13:50 40.735589 -115.919637 76 37341ft 386kts
28-Oct-20 13:51 40.756451 -115.779274 75 37342ft 386kts
28-Oct-20 13:52 40.766563 -115.639091 100 37340ft 387kts
28-Oct-20 13:53 40.750177 -115.497684 92 37341ft 385kts
28-Oct-20 13:54 40.754802 -115.356381 86 37341ft 383kts
28-Oct-20 13:55 40.754552 -115.214530 90 37342ft 384kts
28-Oct-20 13:56 40.750349 -115.072910 91 37336ft 385kts
28-Oct-20 13:57 40.745559 -114.929587 90 37330ft 388kts
28-Oct-20 13:58 40.743531 -114.785619 88 37331ft 391kts
28-Oct-20 13:59 40.744916 -114.640946 87 37331ft 394kts
28-Oct-20 14:00 40.745698 -114.494279 88 37331ft 399kts
28-Oct-20 14:01 40.741969 -114.345841 91 37331ft 405kts
28-Oct-20 14:02 40.736353 -114.195407 91 37330ft 409kts
28-Oct-20 14:03 40.732591 -114.044022 90 37329ft 415kts
28-Oct-20 14:04 40.729182 -113.891316 90 37329ft 420kts
28-Oct-20 14:05 40.729441 -113.734829 84 37329ft 425kts
28-Oct-20 14:06 40.739743 -113.577880 81 37328ft 429kts
28-Oct-20 14:07 40.752307 -113.419393 81 37328ft 436kts
28-Oct-20 14:08 40.764726 -113.257604 82 37327ft 442kts
28-Oct-20 14:09 40.776834 -113.094528 82 37326ft 448kts
28-Oct-20 14:10 40.788677 -112.931423 82 37294ft 455kts
28-Oct-20 14:11 40.800647 -112.763607 82 37297ft 460kts
28-Oct-20 14:12 40.812449 -112.593506 82 37297ft 466kts
28-Oct-20 14:13 40.821323 -112.419968 84 37297ft 472kts
28-Oct-20 14:14 40.830792 -112.247183 82 37297ft 475kts
28-Oct-20 14:16 40.843594 -112.073223 82 37287ft 480kts
28-Oct-20 14:17 40.875838 -111.905029 56 37287ft 466kts
28-Oct-20 14:18 40.931998 -111.748606 62 37287ft 468kts
28-Oct-20 14:19 40.986672 -111.590373 61 37287ft 470kts
28-Oct-20 14:20 41.041772 -111.431107 61 37287ft 471kts
28-Oct-20 14:21 41.093397 -111.271854 65 37287ft 473kts
28-Oct-20 14:22 41.144775 -111.107997 62 37287ft 473kts
28-Oct-20 14:23 41.199638 -110.951821 60 37287ft 472kts
28-Oct-20 14:24 41.255756 -110.792669 61 37287ft 473kts
28-Oct-20 14:25 41.309419 -110.631858 62 37282ft 473kts
28-Oct-20 14:26 41.363361 -110.470517 61 37273ft 473kts
28-Oct-20 14:27 41.396204 -110.299967 78 37276ft 480kts
28-Oct-20 14:28 41.426566 -110.126865 71 37282ft 475kts
28-Oct-20 14:28 41.450887 -109.982689 74 37289ft 477kts
28-Oct-20 14:30 41.481455 -109.778913 74 37298ft 477kts
28-Oct-20 14:30 41.501877 -109.633366 76 37302ft 475kts
28-Oct-20 14:32 41.527119 -109.429949 73 37309ft 471kts
28-Oct-20 14:32 41.550056 -109.287359 73 37312ft 468kts
28-Oct-20 14:34 41.579491 -109.088440 74 37319ft 466kts
28-Oct-20 14:34 41.590389 -108.944742 100 37311ft 477kts
28-Oct-20 14:35 41.537234 -108.780125 102 37319ft 474kts
28-Oct-20 14:37 41.496540 -108.582032 101 37328ft 473kts
28-Oct-20 14:37 41.466005 -108.440928 101 37334ft 473kts
28-Oct-20 14:38 41.428750 -108.271931 102 37340ft 473kts
28-Oct-20 14:39 41.391239 -108.103565 102 37348ft 473kts
28-Oct-20 14:40 41.352730 -107.933995 102 37358ft 473kts
28-Oct-20 14:41 41.314232 -107.765364 101 37367ft 473kts
28-Oct-20 14:42 41.275679 -107.596641 101 37377ft 473kts
28-Oct-20 14:43 41.237168 -107.428655 101 37387ft 473kts
28-Oct-20 14:44 41.198694 -107.260466 102 37397ft 473kts
28-Oct-20 14:45 41.160144 -107.093121 102 37406ft 473kts
28-Oct-20 14:46 41.121000 -106.925252 102 37414ft 473kts
28-Oct-20 14:47 41.079527 -106.758457 104 37423ft 474kts
28-Oct-20 14:48 41.024529 -106.597037 109 37434ft 477kts
28-Oct-20 14:49 40.969004 -106.436567 107 37444ft 475kts
28-Oct-20 14:50 40.922658 -106.273730 102 37453ft 471kts
28-Oct-20 14:51 40.887969 -106.106748 97 37454ft 466kts
28-Oct-20 14:52 40.859257 -105.940032 97 37342ft 465kts
28-Oct-20 14:53 40.826220 -105.773657 101 35905ft 464kts
28-Oct-20 14:54 40.784515 -105.618004 104 34295ft 454kts
28-Oct-20 14:55 40.731661 -105.469160 128 31213ft 447kts
28-Oct-20 14:56 40.628840 -105.380509 145 26514ft 429kts
28-Oct-20 14:57 40.532097 -105.297453 137 21393ft 398kts
28-Oct-20 14:58 40.453318 -105.205364 134 17402ft 347kts
28-Oct-20 14:59 40.390356 -105.128567 135 15359ft 322kts
28-Oct-20 15:00 40.320952 -105.052077 139 14996ft 337kts
28-Oct-20 15:01 40.246345 -104.980716 142 15007ft 314kts
28-Oct-20 15:02 40.178578 -104.917339 140 15005ft 279kts
28-Oct-20 15:03 40.110595 -104.886632 176 14994ft 252kts
28-Oct-20 15:04 40.038576 -104.884858 176 14284ft 260kts
28-Oct-20 15:05 39.965494 -104.883928 176 13708ft 259kts
28-Oct-20 15:06 39.893588 -104.884310 176 12920ft 255kts
28-Oct-20 15:07 39.823574 -104.885101 176 12095ft 251kts
28-Oct-20 15:08 39.755023 -104.885739 177 11261ft 249kts
28-Oct-20 15:09 39.683499 -104.884791 176 11010ft 276kts
28-Oct-20 15:10 39.634819 -104.824438 98 10915ft 240kts
28-Oct-20 15:11 39.625547 -104.736829 74 9553ft 247kts
28-Oct-20 15:12 39.653271 -104.658526 19 8688ft 234kts
28-Oct-20 15:13 39.713761 -104.661312 4 7709ft 204kts
28-Oct-20 15:14 39.769493 -104.661941 359 6782ft 182kts
28-Oct-20 15:15 39.811959 -104.660756 1 5724ft 135kts
28-Oct-20 15:16 39.845663 -104.660367 0 5402ft 77kts
28-Oct-20 15:17 39.852804 -104.661505 324 5396ft 0kts
28-Oct-20 15:18 39.852803 -104.661504 325 5396ft 0kts
28-Oct-20 15:19 39.849755 -104.662381 180 5398ft 20kts
28-Oct-20 15:20 39.844685 -104.662487 180 5403ft 18kts
28-Oct-20 15:21 39.838929 -104.662559 180 5421ft 17kts
28-Oct-20 15:22 39.834562 -104.662616 180 5429ft 12kts
28-Oct-20 15:23 39.831091 -104.662667 179 5432ft 11kts
28-Oct-20 15:24 39.829338 -104.665245 270 5429ft 13kts
28-Oct-20 15:25 39.829377 -104.670164 270 5408ft 16kts
28-Oct-20 15:26 39.830149 -104.675348 308 5399ft 3kts
28-Oct-20 15:27 39.830927 -104.675508 359 5399ft 0kts
28-Oct-20 15:28 39.830927 -104.675508 359 5399ft 0kts
28-Oct-20 15:29 39.830927 -104.675508 359 5399ft 0kts

Navigation Log

Ident Type
Flight plan parsing failed, navigation log unavailable